createdAt,value
2023-06-22T00:01:48.509Z,100531.03
2023-06-22T00:04:15.847Z,100541.53
2023-06-22T00:06:42.870Z,100531.16
2023-06-22T00:09:11.414Z,100545.22
2023-06-22T00:11:39.213Z,100539.72
2023-06-22T00:14:06.369Z,100543.16
2023-06-22T00:16:34.024Z,100546.19
2023-06-22T00:19:01.880Z,100543.66
2023-06-22T00:21:28.859Z,100549.53
2023-06-22T00:23:56.649Z,100547.69
2023-06-22T00:26:23.898Z,100546.84
2023-06-22T00:28:51.109Z,100552.91
2023-06-22T00:31:18.249Z,100546.34
2023-06-22T00:33:45.432Z,100545.63
2023-06-22T00:36:14.542Z,100538.59
2023-06-22T00:38:41.666Z,100531.59
2023-06-22T00:41:08.663Z,100526.06
2023-06-22T00:43:35.833Z,100528.97
2023-06-22T00:46:02.817Z,100541.66
2023-06-22T00:48:30.239Z,100546.78
2023-06-22T00:50:57.214Z,100554.28
2023-06-22T00:53:24.645Z,100544.16
2023-06-22T00:55:52.844Z,100544.09
2023-06-22T00:58:23.043Z,100530.97
2023-06-22T01:00:50.243Z,100526.16
2023-06-22T01:03:18.375Z,100522.41
2023-06-22T01:05:47.990Z,100524.03
2023-06-22T01:08:31.330Z,100526.34
2023-06-22T01:11:12.327Z,100529.03
2023-06-22T01:13:46.355Z,100541.75
2023-06-22T01:16:18.719Z,100540.59
2023-06-22T01:18:46.845Z,100542.72
2023-06-22T01:21:18.473Z,100543.44
2023-06-22T01:24:20.922Z,100536.38
2023-06-22T01:27:18.236Z,100533.72
2023-06-22T01:29:46.856Z,100526.63
2023-06-22T01:32:14.702Z,100537.13
2023-06-22T01:34:43.462Z,100542.38
2023-06-22T01:37:10.632Z,100547.84
2023-06-22T01:39:38.071Z,100531.94
2023-06-22T01:42:06.288Z,100528.72
2023-06-22T01:44:35.156Z,100534.09
2023-06-22T01:47:02.773Z,100532.69
2023-06-22T01:49:30.587Z,100531.19
2023-06-22T01:51:57.571Z,100525.81
2023-06-22T01:54:24.780Z,100527.66
2023-06-22T01:56:51.728Z,100535.16
2023-06-22T01:59:35.724Z,100537.00
2023-06-22T02:02:07.511Z,100533.31
2023-06-22T02:04:45.226Z,100532.03
2023-06-22T02:07:18.010Z,100533.69
2023-06-22T02:09:48.565Z,100541.59
2023-06-22T02:12:19.496Z,100548.78
2023-06-22T02:14:48.249Z,100551.63
2023-06-22T02:17:15.370Z,100552.78
2023-06-22T02:19:43.137Z,100545.59
2023-06-22T02:22:10.023Z,100542.91
2023-06-22T02:24:37.222Z,100549.16
2023-06-22T02:27:04.411Z,100555.53
2023-06-22T02:29:31.675Z,100563.28
2023-06-22T02:31:58.786Z,100550.56
2023-06-22T02:34:26.043Z,100561.13
2023-06-22T02:36:53.063Z,100549.56
2023-06-22T02:39:25.032Z,100556.91
2023-06-22T02:41:56.012Z,100553.53
2023-06-22T02:44:23.235Z,100561.72
2023-06-22T02:46:50.515Z,100569.38
2023-06-22T02:49:17.713Z,100564.88
2023-06-22T02:51:48.052Z,100553.16
2023-06-22T02:54:15.397Z,100561.22
2023-06-22T02:56:44.916Z,100565.84
2023-06-22T02:59:12.234Z,100566.84
2023-06-22T03:01:41.539Z,100561.50
2023-06-22T03:04:10.032Z,100571.69
2023-06-22T03:06:37.313Z,100558.44
2023-06-22T03:09:06.230Z,100565.78
2023-06-22T03:11:34.284Z,100557.91
2023-06-22T03:14:02.296Z,100562.94
2023-06-22T03:16:30.216Z,100566.00
2023-06-22T03:18:57.720Z,100560.97
2023-06-22T03:21:24.854Z,100560.97
2023-06-22T03:23:52.135Z,100557.44
2023-06-22T03:26:19.609Z,100558.13
2023-06-22T03:28:47.631Z,100565.78
2023-06-22T03:31:14.521Z,100560.97
2023-06-22T03:33:41.738Z,100555.44
2023-06-22T03:36:09.664Z,100559.53
2023-06-22T03:38:36.793Z,100547.25
2023-06-22T03:41:03.639Z,100553.44
2023-06-22T03:43:30.837Z,100563.19
2023-06-22T03:45:57.746Z,100553.84
2023-06-22T03:48:24.977Z,100553.41
2023-06-22T03:50:51.818Z,100551.25
2023-06-22T03:53:19.518Z,100563.50
2023-06-22T03:55:53.818Z,100570.56
2023-06-22T03:58:21.958Z,100572.09
2023-06-22T04:00:50.507Z,100576.44
2023-06-22T04:03:20.141Z,100568.41
2023-06-22T04:05:47.436Z,100571.75
2023-06-22T04:08:15.192Z,100576.00
2023-06-22T04:10:42.330Z,100580.19
2023-06-22T04:13:09.775Z,100581.88
2023-06-22T04:15:36.697Z,100581.59
2023-06-22T04:18:04.121Z,100583.78
2023-06-22T04:20:33.397Z,100579.13
2023-06-22T04:23:00.878Z,100569.78
2023-06-22T04:25:27.900Z,100576.13
2023-06-22T04:27:55.087Z,100580.03
2023-06-22T04:30:21.979Z,100593.53
2023-06-22T04:32:58.894Z,100578.97
2023-06-22T04:35:26.343Z,100584.53
2023-06-22T04:37:56.156Z,100590.28
2023-06-22T04:40:24.302Z,100589.03
2023-06-22T04:42:54.702Z,100588.69
2023-06-22T04:45:22.360Z,100583.88
2023-06-22T04:47:50.139Z,100589.59
2023-06-22T04:50:18.439Z,100582.75
2023-06-22T04:52:46.705Z,100581.63
2023-06-22T04:55:15.588Z,100586.66
2023-06-22T04:57:45.788Z,100588.88
2023-06-22T05:00:14.126Z,100596.31
2023-06-22T05:02:42.295Z,100590.34
2023-06-22T05:05:09.771Z,100591.41
2023-06-22T05:07:37.731Z,100592.91
2023-06-22T05:10:06.284Z,100591.28
2023-06-22T05:12:33.530Z,100599.38
2023-06-22T05:15:00.499Z,100604.81
2023-06-22T05:17:27.777Z,100602.19
2023-06-22T05:19:56.049Z,100604.38
2023-06-22T05:22:23.236Z,100606.94
2023-06-22T05:24:50.124Z,100610.31
2023-06-22T05:27:17.399Z,100612.53
2023-06-22T05:29:44.494Z,100619.59
2023-06-22T05:32:11.884Z,100623.16
2023-06-22T05:34:39.186Z,100621.84
2023-06-22T05:37:07.296Z,100628.59
2023-06-22T05:39:34.209Z,100626.78
2023-06-22T05:42:01.389Z,100634.38
2023-06-22T05:44:28.286Z,100637.72
2023-06-22T05:46:55.404Z,100650.16
2023-06-22T05:49:23.592Z,100644.47
2023-06-22T05:51:50.850Z,100642.97
2023-06-22T05:54:19.232Z,100647.34
2023-06-22T05:56:46.438Z,100652.41
2023-06-22T05:59:13.476Z,100652.22
2023-06-22T06:01:41.370Z,100648.16
2023-06-22T06:04:11.118Z,100645.50
2023-06-22T06:06:38.616Z,100646.84
2023-06-22T06:09:06.004Z,100651.38
2023-06-22T06:11:33.221Z,100649.84
2023-06-22T06:14:00.312Z,100653.88
2023-06-22T06:16:27.452Z,100649.81
2023-06-22T06:18:55.924Z,100648.94
2023-06-22T06:21:23.751Z,100651.59
2023-06-22T06:23:50.700Z,100650.44
2023-06-22T06:26:18.172Z,100649.56
2023-06-22T06:28:45.366Z,100643.75
2023-06-22T06:31:13.368Z,100640.31
2023-06-22T06:33:40.390Z,100640.56
2023-06-22T06:36:09.619Z,100641.00
2023-06-22T06:38:36.619Z,100638.41
2023-06-22T06:41:03.718Z,100637.50
2023-06-22T06:43:30.577Z,100634.31
2023-06-22T06:45:57.760Z,100632.28
2023-06-22T06:48:24.722Z,100636.31
2023-06-22T06:50:51.913Z,100634.38
2023-06-22T06:53:18.901Z,100639.38
2023-06-22T06:55:46.742Z,100634.09
2023-06-22T06:58:14.390Z,100628.88
2023-06-22T07:00:41.715Z,100639.34
2023-06-22T07:03:08.807Z,100633.84
2023-06-22T07:05:36.448Z,100633.31
2023-06-22T07:08:03.403Z,100628.00
2023-06-22T07:10:31.336Z,100624.56
2023-06-22T07:12:58.613Z,100621.41
2023-06-22T07:15:26.309Z,100630.91
2023-06-22T07:17:53.288Z,100625.53
2023-06-22T07:20:20.920Z,100622.72
2023-06-22T07:22:47.966Z,100625.97
2023-06-22T07:25:18.707Z,100628.56
2023-06-22T07:27:49.193Z,100622.28
2023-06-22T07:30:16.428Z,100615.56
2023-06-22T07:32:43.319Z,100617.50
2023-06-22T07:35:10.552Z,100622.66
2023-06-22T07:37:37.860Z,100622.53
2023-06-22T07:40:07.437Z,100616.81
2023-06-22T07:42:34.559Z,100622.47
2023-06-22T07:45:02.881Z,100622.53
2023-06-22T07:47:29.929Z,100619.75
2023-06-22T07:49:59.372Z,100617.13
2023-06-22T07:52:26.888Z,100620.38
2023-06-22T07:54:54.278Z,100615.16
2023-06-22T07:57:22.062Z,100614.16
2023-06-22T07:59:49.524Z,100613.97
2023-06-22T08:02:16.698Z,100609.22
2023-06-22T08:04:44.177Z,100603.44
2023-06-22T08:07:11.609Z,100611.00
2023-06-22T08:09:38.771Z,100602.94
2023-06-22T08:12:06.213Z,100609.25
2023-06-22T08:14:33.376Z,100605.75
2023-06-22T08:17:00.283Z,100595.78
2023-06-22T08:19:27.523Z,100602.72
2023-06-22T08:21:54.346Z,100601.50
2023-06-22T08:24:21.530Z,100600.91
2023-06-22T08:26:48.354Z,100601.59
2023-06-22T08:29:18.121Z,100600.53
2023-06-22T08:31:45.021Z,100606.56
2023-06-22T08:34:12.187Z,100597.53
2023-06-22T08:36:42.692Z,100595.03
2023-06-22T08:39:11.249Z,100594.06
2023-06-22T08:41:38.161Z,100594.91
2023-06-22T08:44:05.769Z,100593.72
2023-06-22T08:46:34.459Z,100595.25
2023-06-22T08:49:02.050Z,100600.72
2023-06-22T08:51:29.813Z,100587.75
2023-06-22T08:53:56.929Z,100590.50
2023-06-22T08:56:24.126Z,100583.59
2023-06-22T08:58:51.241Z,100573.00
2023-06-22T09:01:18.119Z,100576.75
2023-06-22T09:03:45.977Z,100573.66
2023-06-22T09:06:14.936Z,100559.88
2023-06-22T09:08:42.158Z,100569.69
2023-06-22T09:11:09.097Z,100571.13
2023-06-22T09:13:36.209Z,100574.50
2023-06-22T09:16:03.068Z,100566.34
2023-06-22T09:18:30.261Z,100556.75
2023-06-22T09:20:57.323Z,100558.63
2023-06-22T09:23:24.534Z,100555.28
2023-06-22T09:25:51.439Z,100553.56
2023-06-22T09:28:18.741Z,100554.41
2023-06-22T09:30:45.941Z,100550.81
2023-06-22T09:33:13.126Z,100545.94
2023-06-22T09:35:40.149Z,100550.94
2023-06-22T09:38:07.274Z,100551.34
2023-06-22T09:40:36.606Z,100544.03
2023-06-22T09:43:03.717Z,100540.00
2023-06-22T09:45:30.842Z,100542.44
2023-06-22T09:47:58.027Z,100544.47
2023-06-22T09:50:25.156Z,100541.81
2023-06-22T09:52:55.912Z,100543.75
2023-06-22T09:55:23.565Z,100546.13
2023-06-22T09:57:50.769Z,100542.38
2023-06-22T10:00:19.980Z,100535.63
2023-06-22T10:02:47.906Z,100535.66
2023-06-22T10:05:15.365Z,100539.97
2023-06-22T10:07:44.938Z,100538.31
2023-06-22T10:10:13.337Z,100531.97
2023-06-22T10:12:47.626Z,100549.63
2023-06-22T10:15:15.131Z,100548.66
2023-06-22T10:17:42.850Z,100543.25
2023-06-22T10:20:13.335Z,100538.81
2023-06-22T10:22:45.169Z,100537.47
2023-06-22T10:25:13.624Z,100540.09
2023-06-22T10:27:41.040Z,100536.88
2023-06-22T10:30:14.171Z,100533.84
2023-06-22T10:32:43.881Z,100530.44
2023-06-22T10:35:17.569Z,100528.66
2023-06-22T10:37:45.812Z,100530.66
2023-06-22T10:40:16.844Z,100525.69
2023-06-22T10:42:44.784Z,100529.41
2023-06-22T10:45:12.256Z,100522.31
2023-06-22T10:47:39.652Z,100517.59
2023-06-22T10:50:07.401Z,100520.75
2023-06-22T10:52:34.764Z,100523.38
2023-06-22T10:55:01.780Z,100516.09
2023-06-22T10:57:29.139Z,100521.78
2023-06-22T10:59:56.054Z,100516.56
2023-06-22T11:02:23.289Z,100522.28
2023-06-22T11:04:50.256Z,100511.53
2023-06-22T11:07:17.772Z,100519.34
2023-06-22T11:09:45.267Z,100520.63
2023-06-22T11:12:12.756Z,100513.63
2023-06-22T11:14:40.668Z,100518.19
2023-06-22T11:17:07.825Z,100511.88
2023-06-22T11:19:35.165Z,100511.31
2023-06-22T11:22:02.374Z,100504.16
2023-06-22T11:24:29.281Z,100505.13
2023-06-22T11:26:58.152Z,100504.53
2023-06-22T11:29:36.670Z,100493.50
2023-06-22T11:32:05.832Z,100496.50
2023-06-22T11:34:32.704Z,100499.78
2023-06-22T11:36:59.853Z,100495.03
2023-06-22T11:39:34.424Z,100501.09
2023-06-22T11:42:11.349Z,100499.19
2023-06-22T11:44:38.940Z,100492.88
2023-06-22T11:47:06.749Z,100496.47
2023-06-22T11:49:33.685Z,100489.94
2023-06-22T11:52:00.915Z,100487.78
2023-06-22T11:54:27.731Z,100487.59
2023-06-22T11:56:54.897Z,100483.97
2023-06-22T11:59:23.412Z,100488.53
2023-06-22T12:01:52.488Z,100489.34
2023-06-22T12:04:19.422Z,100479.47
2023-06-22T12:06:46.590Z,100477.59
2023-06-22T12:09:15.231Z,100474.69
2023-06-22T12:11:42.512Z,100471.63
2023-06-22T12:14:09.442Z,100473.47
2023-06-22T12:16:36.719Z,100469.13
2023-06-22T12:19:03.554Z,100467.38
2023-06-22T12:21:30.746Z,100463.75
2023-06-22T12:23:57.598Z,100452.78
2023-06-22T12:26:24.885Z,100444.72
2023-06-22T12:28:51.746Z,100441.06
2023-06-22T12:31:19.043Z,100442.22
2023-06-22T12:33:45.910Z,100433.53
2023-06-22T12:36:13.051Z,100437.47
2023-06-22T12:38:39.869Z,100440.38
2023-06-22T12:41:06.633Z,100442.28
2023-06-22T12:43:33.828Z,100439.44
2023-06-22T12:46:00.853Z,100438.50
2023-06-22T12:48:28.911Z,100437.66
2023-06-22T12:50:56.223Z,100436.75
2023-06-22T12:53:24.946Z,100443.47
2023-06-22T12:55:51.938Z,100434.34
2023-06-22T12:58:19.296Z,100432.81
2023-06-22T13:00:46.188Z,100438.84
2023-06-22T13:03:13.476Z,100430.00
2023-06-22T13:05:40.472Z,100431.28
2023-06-22T13:08:07.700Z,100426.50
2023-06-22T13:10:34.789Z,100425.53
2023-06-22T13:13:02.140Z,100417.00
2023-06-22T13:15:32.493Z,100419.97
2023-06-22T13:18:00.177Z,100415.06
2023-06-22T13:20:27.127Z,100405.56
2023-06-22T13:22:55.289Z,100406.47
2023-06-22T13:25:24.873Z,100405.31
2023-06-22T13:27:51.998Z,100394.75
2023-06-22T13:30:19.079Z,100396.75
2023-06-22T13:32:46.470Z,100390.03
2023-06-22T13:35:13.624Z,100401.94
2023-06-22T13:37:41.094Z,100398.13
2023-06-22T13:40:09.125Z,100403.47
2023-06-22T13:42:36.520Z,100395.16
2023-06-22T13:45:04.046Z,100391.69
2023-06-22T13:47:31.970Z,100395.41
2023-06-22T13:49:59.628Z,100395.56
2023-06-22T13:52:26.817Z,100391.63
2023-06-22T13:54:53.832Z,100392.66
2023-06-22T13:57:21.065Z,100386.50
2023-06-22T13:59:48.014Z,100381.53
2023-06-22T14:02:15.354Z,100384.91
2023-06-22T14:04:42.412Z,100376.13
2023-06-22T14:07:09.659Z,100380.88
2023-06-22T14:09:36.673Z,100376.88
2023-06-22T14:12:06.027Z,100387.94
2023-06-22T14:14:34.178Z,100375.91
2023-06-22T14:17:01.899Z,100369.31
2023-06-22T14:19:28.769Z,100373.78
2023-06-22T14:21:56.124Z,100359.13
2023-06-22T14:24:25.332Z,100357.25
2023-06-22T14:26:53.703Z,100356.91
2023-06-22T14:29:20.570Z,100356.06
2023-06-22T14:31:50.115Z,100359.84
2023-06-22T14:34:17.133Z,100349.25
2023-06-22T14:36:45.413Z,100353.03
2023-06-22T14:39:12.432Z,100342.19
2023-06-22T14:41:39.646Z,100335.38
2023-06-22T14:44:06.600Z,100336.78
2023-06-22T14:46:33.850Z,100337.97
2023-06-22T14:49:00.713Z,100335.50
2023-06-22T14:51:28.112Z,100344.34
2023-06-22T14:53:55.161Z,100345.94
2023-06-22T14:56:22.525Z,100335.84
2023-06-22T14:58:49.886Z,100336.06
2023-06-22T15:01:20.294Z,100329.94
2023-06-22T15:03:47.377Z,100336.84
2023-06-22T15:06:15.014Z,100327.78
2023-06-22T15:08:42.200Z,100320.28
2023-06-22T15:11:09.779Z,100326.41
2023-06-22T15:13:40.606Z,100323.97
2023-06-22T15:16:08.176Z,100320.09
2023-06-22T15:18:36.657Z,100312.25
2023-06-22T15:21:06.755Z,100314.00
2023-06-22T15:23:34.363Z,100303.63
2023-06-22T15:26:06.374Z,100307.56
2023-06-22T15:28:34.433Z,100308.28
2023-06-22T15:31:02.048Z,100311.94
2023-06-22T15:33:28.997Z,100309.28
2023-06-22T15:35:56.984Z,100308.78
2023-06-22T15:38:24.161Z,100308.28
2023-06-22T15:40:51.379Z,100305.53
2023-06-22T15:43:18.478Z,100310.41
2023-06-22T15:45:45.684Z,100299.41
2023-06-22T15:48:12.586Z,100314.88
2023-06-22T15:50:39.816Z,100314.03
2023-06-22T15:53:06.680Z,100309.16
2023-06-22T15:55:33.829Z,100315.81
2023-06-22T15:58:00.690Z,100315.41
2023-06-22T16:00:28.005Z,100311.91
2023-06-22T16:02:55.254Z,100312.13
2023-06-22T16:05:22.652Z,100309.59
2023-06-22T16:07:49.610Z,100315.25
2023-06-22T16:10:18.716Z,100313.59
2023-06-22T16:12:45.813Z,100304.31
2023-06-22T16:15:13.334Z,100302.41
2023-06-22T16:17:40.406Z,100301.78
2023-06-22T16:20:08.930Z,100301.81
2023-06-22T16:22:35.851Z,100298.44
2023-06-22T16:25:03.209Z,100303.22
2023-06-22T16:27:31.741Z,100298.56
2023-06-22T16:29:59.069Z,100306.16
2023-06-22T16:32:26.249Z,100302.44
2023-06-22T16:34:53.668Z,100299.69
2023-06-22T16:37:21.322Z,100299.69
2023-06-22T16:39:48.511Z,100300.03
2023-06-22T16:42:15.480Z,100285.06
2023-06-22T16:44:42.720Z,100289.25
2023-06-22T16:47:09.905Z,100285.50
2023-06-22T16:49:38.288Z,100281.28
2023-06-22T16:52:05.755Z,100292.81
2023-06-22T16:54:34.504Z,100286.25
2023-06-22T16:57:02.894Z,100280.03
2023-06-22T16:59:30.151Z,100280.28
2023-06-22T17:01:59.117Z,100284.38
2023-06-22T17:04:30.690Z,100278.38
2023-06-22T17:07:07.688Z,100289.31
2023-06-22T17:09:38.016Z,100282.91
2023-06-22T17:14:33.728Z,100289.94
2023-06-22T17:17:01.681Z,100285.06
2023-06-22T17:19:28.883Z,100275.56
2023-06-22T17:21:55.822Z,100278.34
2023-06-22T17:24:25.105Z,100273.97
2023-06-22T17:26:56.478Z,100274.97
2023-06-22T17:29:35.739Z,100267.50
2023-06-22T17:32:04.449Z,100275.66
2023-06-22T17:34:32.746Z,100272.84
2023-06-22T17:37:00.329Z,100267.59
2023-06-22T17:39:29.836Z,100265.59
2023-06-22T17:41:56.826Z,100265.13
2023-06-22T17:44:28.211Z,100261.28
2023-06-22T17:46:58.782Z,100258.28
2023-06-22T17:49:30.669Z,100263.91
2023-06-22T17:51:58.174Z,100258.97
2023-06-22T17:54:40.052Z,100257.53
2023-06-22T17:57:18.636Z,100249.59
2023-06-22T17:59:51.058Z,100250.53
2023-06-22T18:02:25.236Z,100251.81
2023-06-22T18:04:58.248Z,100257.41
2023-06-22T18:07:28.043Z,100261.97
2023-06-22T18:09:56.556Z,100251.19
2023-06-22T18:12:24.068Z,100254.78
2023-06-22T18:14:51.842Z,100254.03
2023-06-22T18:17:21.831Z,100260.00
2023-06-22T18:19:50.442Z,100254.03
2023-06-22T18:22:19.348Z,100259.97
2023-06-22T18:24:49.697Z,100262.56
2023-06-22T18:27:17.495Z,100264.09
2023-06-22T18:29:45.767Z,100260.19
2023-06-22T18:32:15.937Z,100257.97
2023-06-22T18:34:44.415Z,100253.25
2023-06-22T18:37:15.793Z,100261.47
2023-06-22T18:39:46.751Z,100263.81
2023-06-22T18:42:16.622Z,100265.34
2023-06-22T18:44:44.019Z,100276.50
2023-06-22T18:47:12.191Z,100279.44
2023-06-22T18:49:45.537Z,100275.31
2023-06-22T18:52:15.262Z,100277.00
2023-06-22T18:54:44.018Z,100286.41
2023-06-22T18:57:18.158Z,100289.97
2023-06-22T18:59:52.530Z,100290.00
2023-06-22T19:02:19.366Z,100281.66
2023-06-22T19:04:46.705Z,100294.41
2023-06-22T19:07:13.650Z,100307.16
2023-06-22T19:09:40.848Z,100298.41
2023-06-22T19:12:24.294Z,100302.16
2023-06-22T19:15:04.828Z,100311.34
2023-06-22T19:17:33.358Z,100307.34
2023-06-22T19:20:12.169Z,100310.88
2023-06-22T19:22:58.387Z,100314.03
2023-06-22T19:25:36.264Z,100325.06
2023-06-22T19:28:03.886Z,100325.09
2023-06-22T19:30:32.658Z,100333.41
2023-06-22T19:33:00.746Z,100326.75
2023-06-22T19:35:30.195Z,100323.59
2023-06-22T19:37:57.302Z,100322.16
2023-06-22T19:40:24.520Z,100328.81
2023-06-22T19:42:58.054Z,100321.72
2023-06-22T19:45:25.370Z,100329.00
2023-06-22T19:47:52.520Z,100322.38
2023-06-22T19:50:24.713Z,100329.84
2023-06-22T19:52:55.110Z,100333.56
2023-06-22T19:55:22.744Z,100332.75
2023-06-22T19:57:51.395Z,100325.66
2023-06-22T20:00:23.294Z,100329.84
2023-06-22T20:02:55.228Z,100330.44
2023-06-22T20:05:24.179Z,100332.34
2023-06-22T20:07:51.063Z,100335.03
2023-06-22T20:10:22.291Z,100331.28
2023-06-22T20:12:53.629Z,100333.47
2023-06-22T20:15:22.697Z,100337.69
2023-06-22T20:18:10.776Z,100335.56
2023-06-22T20:20:43.726Z,100329.75
2023-06-22T20:23:13.998Z,100338.91
2023-06-22T20:25:43.967Z,100330.75
2023-06-22T20:28:18.242Z,100325.69
2023-06-22T20:31:08.520Z,100328.59
2023-06-22T20:33:35.737Z,100332.56
2023-06-22T20:36:06.260Z,100326.91
2023-06-22T20:51:58.747Z,100330.88
2023-06-22T20:54:25.902Z,100326.69
2023-06-22T20:56:53.174Z,100313.34
2023-06-22T20:59:20.425Z,100308.38
2023-06-22T21:01:47.920Z,100315.22
2023-06-22T21:04:15.147Z,100314.78
2023-06-22T21:06:42.080Z,100312.47
2023-06-22T21:09:09.375Z,100315.41
2023-06-22T21:11:36.337Z,100319.31
2023-06-22T21:14:14.078Z,100327.38
2023-06-22T21:16:45.358Z,100327.59
2023-06-22T21:19:12.588Z,100330.09
2023-06-22T21:21:39.541Z,100315.72
2023-06-22T21:24:06.910Z,100316.38
2023-06-22T21:26:33.956Z,100319.53
2023-06-22T21:29:01.149Z,100322.59
2023-06-22T21:31:28.244Z,100321.88
2023-06-22T21:33:55.479Z,100320.41
2023-06-22T21:36:22.367Z,100321.19
2023-06-22T21:38:49.477Z,100328.94
2023-06-22T21:41:16.390Z,100322.25
2023-06-22T21:43:43.547Z,100317.66
2023-06-22T21:46:10.387Z,100314.97
2023-06-22T21:48:37.642Z,100308.28
2023-06-22T21:51:04.465Z,100306.63
2023-06-22T21:53:31.700Z,100294.84
2023-06-22T21:55:58.601Z,100300.22
2023-06-22T21:58:26.922Z,100302.91
2023-06-22T22:00:57.765Z,100302.47
2023-06-22T22:03:28.228Z,100303.13
2023-06-22T22:05:56.518Z,100294.56
2023-06-22T22:08:24.537Z,100297.66
2023-06-22T22:10:51.598Z,100297.22
2023-06-22T22:13:19.782Z,100293.16
2023-06-22T22:15:50.015Z,100296.91
2023-06-22T22:18:17.474Z,100287.56
2023-06-22T22:20:44.359Z,100295.81
2023-06-22T22:23:11.583Z,100295.38
2023-06-22T22:25:38.452Z,100294.28
2023-06-22T22:28:05.645Z,100286.38
2023-06-22T22:30:32.587Z,100282.22
2023-06-22T22:32:59.785Z,100289.84
2023-06-22T22:35:26.721Z,100294.22
2023-06-22T22:38:15.659Z,100282.50
2023-06-22T22:40:42.468Z,100285.59
2023-06-22T22:43:09.614Z,100283.34
2023-06-22T22:45:36.628Z,100287.84
2023-06-22T22:48:04.092Z,100285.78
2023-06-22T22:50:31.282Z,100278.09
2023-06-22T22:52:58.442Z,100269.31
2023-06-22T22:55:25.374Z,100257.88
2023-06-22T22:57:52.571Z,100249.97
2023-06-22T23:00:19.429Z,100240.56
2023-06-22T23:02:48.969Z,100226.22
2023-06-22T23:05:16.074Z,100224.44
2023-06-22T23:07:43.278Z,100217.22
2023-06-22T23:10:10.397Z,100220.81
2023-06-22T23:12:38.312Z,100220.38
2023-06-22T23:15:08.485Z,100220.88
2023-06-22T23:17:35.686Z,100209.50
2023-06-22T23:20:03.874Z,100207.94
2023-06-22T23:22:31.922Z,100212.91
2023-06-22T23:24:58.811Z,100203.56
2023-06-22T23:27:25.942Z,100192.69
2023-06-22T23:29:52.803Z,100193.72
2023-06-22T23:32:19.989Z,100194.06
2023-06-22T23:34:46.868Z,100209.09
2023-06-22T23:37:14.786Z,100201.75
2023-06-22T23:39:44.651Z,100208.75
2023-06-22T23:42:11.832Z,100208.38
2023-06-22T23:44:38.768Z,100204.38
2023-06-22T23:47:06.242Z,100207.03
2023-06-22T23:49:33.160Z,100191.03
2023-06-22T23:52:00.615Z,100191.56
2023-06-22T23:54:28.096Z,100186.91
2023-06-22T23:56:55.441Z,100177.13
2023-06-22T23:59:22.344Z,100177.41
